• Join FlightAware (Why Join?)
  • Login
  • US Flag 
04:05AM EDT


 

Airport Tracker/Info


-or-


 

Live Flight TrackerFlight Track Log ✈ TRS1795 ✈ 08-May-2012 ✈ KMKE - KCAK

Flight Track Log - Related Links

Times and Time Zones

All times are in EDT time to prevent confusion due to time zone crossing. See the TRS1795 flight status page for this flight to view local times or setup timezone preferences in your user account.

Time Position Orientation Groundspeed Altitude Reporting Facility
EDT Latitude Longitude Course Direction KTS MPH feet Rate Location/Type
09:24AM 42.9333 -87.9167 224° Southwest 161 185 1,100  Level KMKE
09:26AM 42.8883 -87.9756 118° Southeast 214 246 5,500 2,700 Climbing Chicago Center
09:27AM 42.8539 -87.8856 118° Southeast 289 333 8,200 3,120 Climbing Chicago Center
09:28AM 42.8128 -87.7792 168° South 307 353 11,800 3,600 Climbing Chicago Center
09:29AM 42.7333 -87.7556 173° South 308 354 15,500 3,300 Climbing Chicago Center
09:30AM 42.6478 -87.7408 165° South 319 367 18,500 2,400 Climbing Chicago Center
09:31AM 42.5472 -87.7039 163° South 324 373 20,400 2,160 Climbing Chicago Center
09:32AM 42.4422 -87.6617 162° South 359 413 22,900 2,460 Climbing Chicago Center
09:33AM 42.3331 -87.6142 163° South 392 451 25,400 2,520 Climbing Chicago Center
09:34AM 42.2242 -87.5694 162° South 407 468 28,000 1,800 Climbing Chicago Center
09:35AM 42.1169 -87.5219 159° South 407 468 29,000 480 Climbing Chicago Center
09:36AM 42.0119 -87.4664 114° Southeast 402 463 29,000  Level Chicago Center
09:37AM 41.9614 -87.3142 97° East 507 583 29,000  Level Chicago Center
09:38AM 41.9456 -87.1417 93° East 491 565 29,000 -300 Level Chicago Center
09:39AM 41.9381 -86.9744 89° East 465 535 28,500  Descending Chicago Center
09:40AM 41.9408 -86.8067 88° East 453 521 29,000 240 Climbing Chicago Center
09:41AM 41.9453 -86.6364 89° East 453 521 29,000  Level Chicago Center
09:42AM 41.9472 -86.4658 89° East 453 521 29,000  Level Chicago Center
09:43AM 41.9492 -86.2953 88° East 453 521 29,000  Level Chicago Center
09:44AM 41.9528 -86.1250 87° East 458 527 29,000  Level Chicago Center
09:45AM 41.9583 -85.9569 90° East 458 527 29,000  Level Chicago Center
09:46AM 41.9572 -85.7839 91° East 458 527 29,000  Level Chicago Center
09:47AM 41.9544 -85.6306 91° East 458 527 29,000  Level Chicago Center
09:48AM 41.9531 -85.4631 104° East 458 527 29,000  Level Chicago Center
09:49AM 41.9164 -85.2664 112° Southeast 456 525 29,000  Level Cleveland Center
09:50AM 41.8706 -85.1122 111° Southeast 449 517 29,000 -540 Level Cleveland Center
09:53AM 41.7378 -84.6436 112° Southeast 435 501 27,000 -360 Descending Cleveland Center
09:59AM 41.4700 -83.7508 124° Southeast 430 495 26,200 -540 Descending Cleveland Center
10:04AM 41.1558 -83.1397 125° Southeast 405 466 21,300 -1,020 Descending Cleveland Center
10:05AM 41.0939 -83.0214 124° Southeast 400 460 20,300 -1,020 Descending Cleveland Center
10:06AM 41.0317 -82.9008 125° Southeast 400 460 19,300 -660 Descending Cleveland Center
10:07AM 40.9653 -82.7775 125° Southeast 388 447 19,000 -300 Descending Cleveland Center
10:08AM 40.9050 -82.6628 115° Southeast 388 447 18,800 -1,500 Descending Cleveland Center
10:09AM 40.8592 -82.5350 97° East 388 447 16,100 -2,520 Descending Cleveland Center
10:10AM 40.8450 -82.3919 98° East 380 437 13,800 -2,160 Descending Cleveland Center
10:11AM 40.8303 -82.2569 97° East 375 432 11,800 -1,800 Descending Cleveland Center
10:12AM 40.8175 -82.1278 97° East 370 426 10,200 -1,260 Descending Cleveland Center
10:13AM 40.8067 -82.0122 98° East 337 388 9,300 -1,020 Descending Cleveland Center
10:14AM 40.7953 -81.9022 98° East 308 354 8,200 -1,260 Descending Cleveland Center
10:15AM 40.7842 -81.7978 98° East 291 335 6,800 -1,380 Descending Cleveland Center
10:16AM 40.7725 -81.6936 97° East 285 328 5,500 -900 Descending Cleveland Center
10:17AM 40.7631 -81.5919 97° East 285 328 5,000 -300 Descending Cleveland Center
10:18AM 40.7536 -81.4958 56° Northeast 275 316 5,000  Level Cleveland Center
10:19AM 40.7958 -81.4142 43° Northeast 248 285 5,000  Level Cleveland Center
10:20AM 40.8442 -81.3544 45° Northeast 267 307 5,000  Level Cleveland Center
10:21AM 40.8989 -81.2808 43° Northeast 267 307 5,000  Level Cleveland Center
10:22AM 40.9533 -81.2128 250° West 272 313 5,000  Level Cleveland Center
10:29AM 40.6658 -82.2399 250° West  Level FlightAware Approximate